createdAt,value
2022-12-13T01:15:26.201Z,100.00
2022-12-13T01:18:34.379Z,100.00
2022-12-13T01:21:39.718Z,100.00
2022-12-13T01:24:46.050Z,100.00
2022-12-13T01:27:53.988Z,100.00
2022-12-13T01:30:58.814Z,100.00
2022-12-13T01:34:04.923Z,100.00
2022-12-13T01:37:10.360Z,100.00
2022-12-13T01:40:17.059Z,100.00
2022-12-13T01:43:25.471Z,100.00
2022-12-13T01:46:31.464Z,100.00
2022-12-13T01:49:36.094Z,100.00
2022-12-13T01:52:44.948Z,100.00
2022-12-13T01:55:52.573Z,100.00
2022-12-13T01:58:59.072Z,100.00
2022-12-13T02:02:04.358Z,100.00
2022-12-13T02:05:22.148Z,100.00
2022-12-13T02:08:28.159Z,100.00
2022-12-13T02:11:34.514Z,100.00
2022-12-13T02:14:41.108Z,100.00
2022-12-13T02:18:18.719Z,100.00
2022-12-13T02:21:35.004Z,99.46
2022-12-13T02:25:10.081Z,98.54
2022-12-13T02:28:45.661Z,98.04
2022-12-13T02:32:18.156Z,97.85
2022-12-13T02:35:47.551Z,97.90
2022-12-13T02:39:14.123Z,97.77
2022-12-13T02:42:32.652Z,97.70
2022-12-13T02:45:57.535Z,97.93
2022-12-13T02:49:02.211Z,98.38
2022-12-13T02:52:07.552Z,98.39
2022-12-13T02:55:12.326Z,98.46
2022-12-13T02:58:18.115Z,98.40
2022-12-13T03:01:50.494Z,98.50
2022-12-13T03:06:00.244Z,98.50
2022-12-13T03:09:03.400Z,98.58
2022-12-13T03:13:13.624Z,98.52
2022-12-13T03:16:40.746Z,99.03
2022-12-13T03:19:45.446Z,98.70
2022-12-13T03:22:51.420Z,98.15
2022-12-13T03:25:57.818Z,97.98
2022-12-13T03:29:03.854Z,97.79
2022-12-13T03:32:11.336Z,98.21
2022-12-13T03:35:22.160Z,98.13
2022-12-13T03:38:24.151Z,98.31
2022-12-13T03:41:34.919Z,98.04
2022-12-13T03:44:40.302Z,97.77
2022-12-13T03:47:46.032Z,97.22
2022-12-13T03:50:50.898Z,96.90
2022-12-13T03:53:57.256Z,96.85
2022-12-13T03:57:03.118Z,96.97
2022-12-13T04:00:09.539Z,96.88
2022-12-13T04:03:15.035Z,96.74
2022-12-13T04:06:22.241Z,96.79
2022-12-13T04:09:26.636Z,96.94
2022-12-13T04:12:49.393Z,97.42
2022-12-13T04:15:58.036Z,97.59
2022-12-13T04:19:03.267Z,97.88
2022-12-13T04:22:08.962Z,98.25
2022-12-13T04:25:15.177Z,98.75
2022-12-13T04:28:22.313Z,99.01
2022-12-13T04:31:28.737Z,99.29
2022-12-13T04:34:37.494Z,99.05
2022-12-13T04:37:43.363Z,98.81
2022-12-13T04:40:50.112Z,99.15
2022-12-13T04:43:55.566Z,99.43
2022-12-13T04:47:01.097Z,99.85
2022-12-13T04:50:06.819Z,100.00
2022-12-13T04:53:04.879Z,100.00
2022-12-13T04:56:11.014Z,100.00
2022-12-13T04:59:15.714Z,100.00
2022-12-13T05:02:23.573Z,100.00
2022-12-13T05:05:27.868Z,100.00
2022-12-13T05:08:33.155Z,100.00
2022-12-13T05:11:38.746Z,100.00
2022-12-13T05:14:45.889Z,100.00
2022-12-13T05:17:51.491Z,100.00
2022-12-13T05:20:57.787Z,100.00
2022-12-13T05:24:03.301Z,100.00
2022-12-13T05:27:24.569Z,100.00
2022-12-13T05:30:15.325Z,100.00
2022-12-13T05:33:19.927Z,100.00
2022-12-13T05:36:25.947Z,100.00
2022-12-13T05:39:32.624Z,100.00
2022-12-13T05:42:38.313Z,100.00
2022-12-13T05:45:45.107Z,100.00
2022-12-13T05:48:51.733Z,100.00
2022-12-13T05:51:57.681Z,100.00
2022-12-13T05:55:05.140Z,100.00
2022-12-13T05:58:13.349Z,100.00
2022-12-13T06:01:22.139Z,100.00
2022-12-13T06:04:27.536Z,100.00
2022-12-13T06:07:34.110Z,100.00
2022-12-13T06:10:39.570Z,100.00
2022-12-13T06:13:44.592Z,100.00
2022-12-13T06:16:51.637Z,81.74
2022-12-13T06:19:58.099Z,76.15
2022-12-13T06:23:02.760Z,75.38
2022-12-13T06:26:01.330Z,75.99
2022-12-13T06:29:00.262Z,75.97
2022-12-13T06:32:11.139Z,77.82
2022-12-13T06:35:27.293Z,80.49
2022-12-13T06:38:31.526Z,79.18
2022-12-13T06:41:32.204Z,78.49
2022-12-13T06:44:37.459Z,78.02
2022-12-13T06:47:42.932Z,77.44
2022-12-13T06:50:48.948Z,77.60
2022-12-13T06:53:55.417Z,77.76
2022-12-13T06:57:01.802Z,78.90
2022-12-13T07:00:06.643Z,78.86
2022-12-13T07:03:11.968Z,78.89
2022-12-13T07:06:29.560Z,78.51
2022-12-13T07:09:40.064Z,78.22
2022-12-13T07:12:47.916Z,79.33
2022-12-13T07:15:54.233Z,79.12
2022-12-13T07:19:01.619Z,79.81
2022-12-13T07:22:07.065Z,80.39
2022-12-13T07:25:27.947Z,79.66
2022-12-13T07:28:24.126Z,79.14
2022-12-13T07:31:30.889Z,75.59
2022-12-13T07:34:35.654Z,77.16
2022-12-13T07:37:42.761Z,79.15
2022-12-13T07:40:52.210Z,78.77
2022-12-13T07:43:57.908Z,81.23
2022-12-13T07:47:02.830Z,81.12
2022-12-13T07:50:24.307Z,80.63
2022-12-13T07:53:18.575Z,79.66
2022-12-13T07:56:25.135Z,79.51
2022-12-13T07:59:28.428Z,80.46
2022-12-13T08:02:33.310Z,81.87
2022-12-13T08:05:39.384Z,82.11
2022-12-13T08:08:45.342Z,81.30
2022-12-13T08:11:50.932Z,81.80
2022-12-13T08:14:56.177Z,81.79
2022-12-13T08:18:02.413Z,81.83
2022-12-13T08:21:37.280Z,81.83
2022-12-13T08:24:15.303Z,82.25
2022-12-13T08:27:06.401Z,81.79
2022-12-13T08:30:13.609Z,83.38
2022-12-13T08:33:19.759Z,84.13
2022-12-13T08:36:29.460Z,83.87
2022-12-13T08:39:36.467Z,83.54
2022-12-13T08:42:43.030Z,83.31
2022-12-13T08:45:48.919Z,82.36
2022-12-13T08:48:55.564Z,81.46
2022-12-13T08:52:01.541Z,82.77
2022-12-13T08:55:01.807Z,82.50
2022-12-13T08:58:08.995Z,83.39
2022-12-13T09:01:13.637Z,83.48
2022-12-13T09:04:31.500Z,83.26
2022-12-13T09:07:28.810Z,83.24
2022-12-13T09:10:38.712Z,83.58
2022-12-13T09:13:44.776Z,84.31
2022-12-13T09:16:51.696Z,83.47
2022-12-13T09:19:57.954Z,83.34
2022-12-13T09:23:04.186Z,82.60
2022-12-13T09:26:10.732Z,82.80
2022-12-13T09:29:17.260Z,82.34
2022-12-13T09:32:21.928Z,82.53
2022-12-13T09:35:27.473Z,82.92
2022-12-13T09:38:33.129Z,82.10
2022-12-13T09:41:53.782Z,81.74
2022-12-13T09:45:22.196Z,81.85
2022-12-13T09:48:14.521Z,81.01
2022-12-13T09:51:28.347Z,81.21
2022-12-13T09:54:44.818Z,81.51
2022-12-13T09:57:45.998Z,81.70
2022-12-13T10:00:51.094Z,81.21
2022-12-13T10:03:58.580Z,81.09
2022-12-13T10:07:08.536Z,80.85
2022-12-13T10:10:15.523Z,79.92
2022-12-13T10:13:37.202Z,80.63
2022-12-13T10:16:51.883Z,81.18
2022-12-13T10:19:59.537Z,80.63
2022-12-13T10:26:14.874Z,80.29
2022-12-13T10:29:18.824Z,80.25
2022-12-13T10:32:28.358Z,80.67
2022-12-13T10:35:46.207Z,81.38
2022-12-13T10:38:54.435Z,81.62
2022-12-13T10:41:59.126Z,81.97
2022-12-13T10:45:04.627Z,82.23
2022-12-13T10:48:10.592Z,82.38
2022-12-13T10:51:21.685Z,82.35
2022-12-13T10:54:38.240Z,82.83
2022-12-13T10:57:40.276Z,83.07
2022-12-13T11:00:56.007Z,82.77
2022-12-13T11:04:25.411Z,82.83
2022-12-13T11:07:45.744Z,82.86
2022-12-13T11:10:52.768Z,81.73
2022-12-13T11:15:09.809Z,81.93
2022-12-13T11:18:34.581Z,81.50
2022-12-13T11:21:45.096Z,81.84
2022-12-13T11:24:54.494Z,81.42
2022-12-13T11:28:31.930Z,81.65
2022-12-13T11:31:59.610Z,82.29
2022-12-13T11:35:05.673Z,82.00
2022-12-13T11:38:07.964Z,82.98
2022-12-13T11:41:32.371Z,83.43
2022-12-13T11:45:22.785Z,83.80
2022-12-13T11:48:45.538Z,84.30
2022-12-13T11:52:06.159Z,83.34
2022-12-13T11:55:32.322Z,82.88
2022-12-13T11:59:24.066Z,82.81
2022-12-13T12:02:44.329Z,83.75
2022-12-13T12:05:56.230Z,83.81
2022-12-13T12:09:08.300Z,83.68
2022-12-13T12:12:22.089Z,83.86
2022-12-13T12:15:41.483Z,82.74
2022-12-13T12:18:42.159Z,83.37
2022-12-13T12:22:15.387Z,83.17
2022-12-13T12:25:42.506Z,82.68
2022-12-13T12:29:19.437Z,82.64
2022-12-13T12:32:48.611Z,82.42
2022-12-13T12:36:20.111Z,82.11
2022-12-13T12:39:40.510Z,81.75
2022-12-13T12:43:18.758Z,82.03
2022-12-13T12:47:08.793Z,82.69
2022-12-13T12:50:11.441Z,83.22
2022-12-13T12:53:54.690Z,83.79
2022-12-13T12:57:39.570Z,83.89
2022-12-13T13:00:55.332Z,84.10
2022-12-13T13:04:02.321Z,84.33
2022-12-13T13:07:31.251Z,84.79
2022-12-13T13:10:32.741Z,86.04
2022-12-13T13:14:01.642Z,86.23
2022-12-13T13:17:08.900Z,87.15
2022-12-13T13:20:39.320Z,88.62
2022-12-13T13:23:46.764Z,87.79
2022-12-13T13:27:01.456Z,88.24
2022-12-13T13:30:07.133Z,88.40
2022-12-13T13:33:12.485Z,88.69
2022-12-13T13:36:29.001Z,87.75
2022-12-13T13:39:36.760Z,87.53
2022-12-13T13:42:45.663Z,87.31
2022-12-13T13:46:14.584Z,87.06
2022-12-13T13:49:21.908Z,87.36
2022-12-13T13:52:36.727Z,86.95
2022-12-13T13:56:14.116Z,86.67
2022-12-13T13:59:50.910Z,86.61
2022-12-13T14:03:34.840Z,86.77
2022-12-13T14:07:27.011Z,85.90
2022-12-13T14:10:58.383Z,85.65
2022-12-13T14:14:52.120Z,86.34
2022-12-13T14:18:49.064Z,87.73
2022-12-13T14:22:24.805Z,88.47
2022-12-13T14:25:59.092Z,88.74
2022-12-13T14:29:11.151Z,88.60
2022-12-13T14:32:26.581Z,88.64
2022-12-13T14:35:45.177Z,89.36
2022-12-13T14:38:51.194Z,89.81
2022-12-13T14:42:03.230Z,90.11
2022-12-13T14:45:08.341Z,89.91
2022-12-13T14:48:28.096Z,89.81
2022-12-13T14:51:47.218Z,89.59
2022-12-13T14:55:15.850Z,89.95
2022-12-13T14:58:32.570Z,90.13
2022-12-13T15:01:53.586Z,89.68
2022-12-13T15:05:00.019Z,88.38
2022-12-13T15:08:10.785Z,87.74
2022-12-13T15:11:14.243Z,87.87
2022-12-13T15:14:21.182Z,88.19
2022-12-13T15:17:43.110Z,88.62
2022-12-13T15:20:54.456Z,88.97
2022-12-13T15:24:02.676Z,89.06
2022-12-13T15:27:11.500Z,89.00
2022-12-13T15:30:17.646Z,89.33
2022-12-13T15:33:44.035Z,89.86
2022-12-13T15:36:44.454Z,89.57
2022-12-13T15:39:54.087Z,89.57
2022-12-13T15:43:00.886Z,90.25
2022-12-13T15:46:06.963Z,90.46
2022-12-13T15:49:14.479Z,90.17
2022-12-13T15:52:22.613Z,89.12
2022-12-13T15:55:33.026Z,89.01
2022-12-13T15:58:48.010Z,88.59
2022-12-13T19:15:55.148Z,91.56
2022-12-13T19:19:01.445Z,90.55
2022-12-13T19:22:07.260Z,88.71
2022-12-13T19:25:12.373Z,87.42
2022-12-13T19:28:21.493Z,88.47
2022-12-13T19:31:32.025Z,86.94
2022-12-13T19:34:37.726Z,86.09
2022-12-13T19:37:44.486Z,85.86
2022-12-13T19:40:49.406Z,85.76
2022-12-13T19:43:59.810Z,85.45
2022-12-13T19:47:06.847Z,84.70
2022-12-13T19:50:13.446Z,84.84
2022-12-13T19:53:18.383Z,84.18
2022-12-13T19:56:25.921Z,83.05
2022-12-13T19:59:31.223Z,82.15
2022-12-13T20:02:36.527Z,82.15
2022-12-13T20:05:36.220Z,81.80
2022-12-13T20:08:41.848Z,81.06
2022-12-13T20:11:48.849Z,80.76
2022-12-13T20:14:55.759Z,80.86
2022-12-13T20:18:02.535Z,80.81
2022-12-13T20:21:21.793Z,80.90
2022-12-13T20:24:28.005Z,80.87
2022-12-13T20:27:33.726Z,80.79
2022-12-13T20:30:40.453Z,81.59
2022-12-13T20:33:45.564Z,81.48
2022-12-13T20:36:51.950Z,80.96
2022-12-13T20:39:58.185Z,81.25
2022-12-13T20:43:04.745Z,82.05
2022-12-13T20:46:21.269Z,81.65
2022-12-13T20:49:28.071Z,82.33
2022-12-13T20:52:32.904Z,81.99
2022-12-13T20:55:39.047Z,82.38
2022-12-13T20:58:44.589Z,82.23
2022-12-13T21:01:51.847Z,82.30
2022-12-13T21:04:57.271Z,82.68
2022-12-13T21:08:19.773Z,82.60
2022-12-13T21:11:27.630Z,83.01
2022-12-13T21:14:40.132Z,82.20
2022-12-13T21:17:45.516Z,82.16
2022-12-13T21:20:45.630Z,81.90
2022-12-13T21:23:31.120Z,81.82
2022-12-13T21:26:28.701Z,81.83
2022-12-13T21:29:21.471Z,81.89
2022-12-13T21:32:27.147Z,81.36
2022-12-13T21:35:32.105Z,81.19
2022-12-13T21:38:37.577Z,81.44
2022-12-13T21:41:43.925Z,81.65
2022-12-13T21:44:51.501Z,81.32
2022-12-13T21:47:58.232Z,80.87
2022-12-13T21:51:06.299Z,79.68
2022-12-13T21:54:11.692Z,79.71
2022-12-13T21:57:29.109Z,79.25
2022-12-13T22:00:24.014Z,79.11
2022-12-13T22:03:27.139Z,78.70
2022-12-13T22:06:33.049Z,78.94
2022-12-13T22:09:38.674Z,79.40
2022-12-13T22:12:49.452Z,79.33
2022-12-13T22:15:54.809Z,79.46
2022-12-13T22:18:59.971Z,80.08
2022-12-13T22:22:04.878Z,79.73
2022-12-13T22:25:11.195Z,80.05
2022-12-13T22:28:17.947Z,79.40
2022-12-13T22:31:28.136Z,79.22
2022-12-13T22:34:31.587Z,79.04
2022-12-13T22:37:37.557Z,79.01
2022-12-13T22:40:43.225Z,78.22
2022-12-13T22:43:52.558Z,77.18
2022-12-13T22:46:58.588Z,76.53
2022-12-13T22:50:04.582Z,75.75
2022-12-13T22:53:10.438Z,76.47
2022-12-13T22:56:22.855Z,75.76
2022-12-13T22:59:21.373Z,74.86
2022-12-13T23:02:27.918Z,74.67
2022-12-13T23:05:34.743Z,75.61
2022-12-13T23:08:43.559Z,75.78
2022-12-13T23:12:06.634Z,76.22
2022-12-13T23:15:11.725Z,76.50
2022-12-13T23:18:16.877Z,76.37
2022-12-13T23:21:22.500Z,76.05
2022-12-13T23:24:28.884Z,74.56
2022-12-13T23:27:34.542Z,74.49
2022-12-13T23:30:39.381Z,74.54
2022-12-13T23:33:44.028Z,74.74
2022-12-13T23:36:48.969Z,75.20
2022-12-13T23:39:54.332Z,74.93
2022-12-13T23:43:00.140Z,75.06
2022-12-13T23:46:05.139Z,74.56
2022-12-13T23:49:12.080Z,74.54
2022-12-13T23:52:17.452Z,74.87
2022-12-13T23:55:22.814Z,73.93
2022-12-13T23:58:28.176Z,73.62
